Tribune, Kansas
Current Conditions -  °F | °C
As of 3:15 PM on Saturday 20 Dec 2014 (Local Time) from K3K3 Reporting Station
Clear Clear  
Wind Chill: 44°   Ceiling: Unl
Heat Index: 46°   Visibility: 10mi
Dew Point: 30°   Wind: 5mph
Humidity: 53%   Direction: 250°WSW
Pressure: 29.97"   Gusts: NA
Location:  38.47°N, 101.75°W
Report Text: K3K3 202115Z AUTO 25004KT 10SM CLR 08/M01 A2997 RMK AO2
Loading
Personal Weather Stations






























Interactive Weather Map New forecast layout! Learn more

10-Day Weather Forecast

Advertisements
Track Severe Weather on mobile